sensor_id;sensor_type;location;lat;lon;timestamp;pressure;altitude;pressure_sealevel;temperature;humidity
4133;BME280;2080;51.038;7.008;2023-10-09T00:08:20;-5715.63;;;-142.53;100.00
4133;BME280;2080;51.038;7.008;2023-10-09T00:11:01;-5473.03;;;-142.53;100.00
4133;BME280;2080;51.038;7.008;2023-10-09T00:13:46;-5715.63;;;-142.53;100.00
4133;BME280;2080;51.038;7.008;2023-10-09T00:16:16;-5715.63;;;-142.53;100.00
4133;BME280;2080;51.038;7.008;2023-10-09T00:18:42;-5958.22;;;-142.53;100.00
4133;BME280;2080;51.038;7.008;2023-10-09T00:21:19;-5958.22;;;-142.53;100.00
4133;BME280;2080;51.038;7.008;2023-10-09T00:23:50;-5958.22;;;-142.53;100.00
4133;BME280;2080;51.038;7.008;2023-10-09T00:26:21;-5715.63;;;-142.53;100.00
4133;BME280;2080;51.038;7.008;2023-10-09T00:28:47;-5715.63;;;-142.53;100.00
4133;BME280;2080;51.038;7.008;2023-10-09T00:31:19;-5715.63;;;-142.53;100.00
4133;BME280;2080;51.038;7.008;2023-10-09T00:34:05;-4987.75;;;-142.53;100.00
4133;BME280;2080;51.038;7.008;2023-10-09T00:36:31;-5473.03;;;-142.53;100.00
4133;BME280;2080;51.038;7.008;2023-10-09T00:38:58;-5473.03;;;-142.53;100.00
4133;BME280;2080;51.038;7.008;2023-10-09T00:45:11;-5958.22;;;-142.53;100.00
4133;BME280;2080;51.038;7.008;2023-10-09T00:47:41;-6685.88;;;-142.53;100.00
4133;BME280;2080;51.038;7.008;2023-10-09T00:50:09;-6685.88;;;-142.53;100.00
4133;BME280;2080;51.038;7.008;2023-10-09T00:52:43;-6200.78;;;-142.53;100.00
4133;BME280;2080;51.038;7.008;2023-10-09T00:55:20;-6200.78;;;-142.53;100.00
4133;BME280;2080;51.038;7.008;2023-10-09T00:57:48;-6200.78;;;-142.53;100.00
4133;BME280;2080;51.038;7.008;2023-10-09T01:00:16;-5230.41;;;-142.53;100.00
4133;BME280;2080;51.038;7.008;2023-10-09T01:05:06;-7413.38;;;-142.53;100.00
4133;BME280;2080;51.038;7.008;2023-10-09T01:07:50;-6685.88;;;-142.53;100.00
4133;BME280;2080;51.038;7.008;2023-10-09T01:10:25;-7170.88;;;-142.53;100.00
4133;BME280;2080;51.038;7.008;2023-10-09T01:21:27;-5473.03;;;-142.53;100.00
4133;BME280;2080;51.038;7.008;2023-10-09T01:23:53;-5230.41;;;-142.53;100.00
4133;BME280;2080;51.038;7.008;2023-10-09T01:26:34;-5230.41;;;-142.53;100.00
4133;BME280;2080;51.038;7.008;2023-10-09T01:29:22;-4502.41;;;-142.53;100.00
4133;BME280;2080;51.038;7.008;2023-10-09T01:31:55;-4987.75;;;-142.53;100.00
4133;BME280;2080;51.038;7.008;2023-10-09T01:39:34;-4502.41;;;-142.53;100.00
4133;BME280;2080;51.038;7.008;2023-10-09T01:42:05;-4745.09;;;-142.53;100.00
4133;BME280;2080;51.038;7.008;2023-10-09T01:44:32;-4017.00;;;-142.53;100.00
4133;BME280;2080;51.038;7.008;2023-10-09T01:47:02;-4745.09;;;-142.53;100.00
4133;BME280;2080;51.038;7.008;2023-10-09T01:49:34;-4259.72;;;-142.53;100.00
4133;BME280;2080;51.038;7.008;2023-10-09T01:52:07;-3774.28;;;-142.53;100.00
4133;BME280;2080;51.038;7.008;2023-10-09T01:54:41;-3774.28;;;-142.53;100.00
4133;BME280;2080;51.038;7.008;2023-10-09T02:15:28;-2074.66;;;-142.53;100.00
4133;BME280;2080;51.038;7.008;2023-10-09T02:18:09;-2803.16;;;-142.53;100.00
4133;BME280;2080;51.038;7.008;2023-10-09T02:20:45;-1831.78;;;-142.53;100.00
4133;BME280;2080;51.038;7.008;2023-10-09T02:23:29;-1831.78;;;-142.53;100.00
4133;BME280;2080;51.038;7.008;2023-10-09T02:26:11;-860.09;;;-142.53;100.00
4133;BME280;2080;51.038;7.008;2023-10-09T02:28:58;-2074.66;;;-142.53;100.00
4133;BME280;2080;51.038;7.008;2023-10-09T02:31:34;-2560.34;;;-142.53;100.00
4133;BME280;2080;51.038;7.008;2023-10-09T02:34:10;-2074.66;;;-142.53;100.00
4133;BME280;2080;51.038;7.008;2023-10-09T02:36:38;-2560.34;;;-142.53;100.00
4133;BME280;2080;51.038;7.008;2023-10-09T02:39:07;-2803.16;;;-142.53;100.00
4133;BME280;2080;51.038;7.008;2023-10-09T02:41:55;-2074.66;;;-142.53;100.00
4133;BME280;2080;51.038;7.008;2023-10-09T02:44:44;-2074.66;;;-142.53;100.00
4133;BME280;2080;51.038;7.008;2023-10-09T02:47:18;-1103.03;;;-142.53;100.00
4133;BME280;2080;51.038;7.008;2023-10-09T02:49:55;-1103.03;;;-142.53;100.00
4133;BME280;2080;51.038;7.008;2023-10-09T02:52:26;-1345.97;;;-142.53;100.00
4133;BME280;2080;51.038;7.008;2023-10-09T02:54:57;-131.13;;;-142.53;100.00
4133;BME280;2080;51.038;7.008;2023-10-09T02:57:31;-374.13;;;-142.53;100.00
4133;BME280;2080;51.038;7.008;2023-10-09T03:00:06;111.88;;;-142.53;100.00
4133;BME280;2080;51.038;7.008;2023-10-09T03:02:43;-860.09;;;-142.53;100.00
4133;BME280;2080;51.038;7.008;2023-10-09T03:05:09;-617.13;;;-142.53;100.00
4133;BME280;2080;51.038;7.008;2023-10-09T03:07:38;-1345.97;;;-142.53;100.00
4133;BME280;2080;51.038;7.008;2023-10-09T03:10:07;-1831.78;;;-142.53;100.00
4133;BME280;2080;51.038;7.008;2023-10-09T03:12:39;-1831.78;;;-142.53;100.00
4133;BME280;2080;51.038;7.008;2023-10-09T03:15:08;-2074.66;;;-142.53;100.00
4133;BME280;2080;51.038;7.008;2023-10-09T03:17:34;-1103.03;;;-142.53;100.00
4133;BME280;2080;51.038;7.008;2023-10-09T03:20:04;-374.13;;;-142.53;100.00
4133;BME280;2080;51.038;7.008;2023-10-09T03:22:38;-131.13;;;-142.53;100.00
4133;BME280;2080;51.038;7.008;2023-10-09T03:25:05;111.88;;;-142.53;100.00
4133;BME280;2080;51.038;7.008;2023-10-09T03:27:38;111.88;;;-142.53;100.00
4133;BME280;2080;51.038;7.008;2023-10-09T03:30:08;354.94;;;-142.53;100.00
4133;BME280;2080;51.038;7.008;2023-10-09T03:32:35;354.94;;;-142.53;100.00
4133;BME280;2080;51.038;7.008;2023-10-09T03:35:06;-131.13;;;-142.53;100.00
4133;BME280;2080;51.038;7.008;2023-10-09T03:37:35;-131.13;;;-142.53;100.00
4133;BME280;2080;51.038;7.008;2023-10-09T03:40:05;354.94;;;-142.53;100.00
4133;BME280;2080;51.038;7.008;2023-10-09T03:42:32;-131.13;;;-142.53;100.00
4133;BME280;2080;51.038;7.008;2023-10-09T03:45:01;-131.13;;;-142.53;100.00
4133;BME280;2080;51.038;7.008;2023-10-09T03:47:37;111.88;;;-142.53;100.00
4133;BME280;2080;51.038;7.008;2023-10-09T03:50:03;-131.13;;;-142.53;100.00
4133;BME280;2080;51.038;7.008;2023-10-09T04:00:22;841.06;;;-142.53;100.00
4133;BME280;2080;51.038;7.008;2023-10-09T04:02:54;1084.16;;;-142.53;100.00
4133;BME280;2080;51.038;7.008;2023-10-09T04:05:19;841.06;;;-142.53;100.00
4133;BME280;2080;51.038;7.008;2023-10-09T04:07:45;598.00;;;-142.53;100.00
4133;BME280;2080;51.038;7.008;2023-10-09T04:10:11;354.94;;;-142.53;100.00
4133;BME280;2080;51.038;7.008;2023-10-09T04:12:54;2056.69;;;-142.53;100.00
4133;BME280;2080;51.038;7.008;2023-10-09T04:15:26;2056.69;;;-142.53;100.00
4133;BME280;2080;51.038;7.008;2023-10-09T04:17:55;2543.09;;;-142.53;100.00
4133;BME280;2080;51.038;7.008;2023-10-09T04:20:23;2299.88;;;-142.53;100.00
4133;BME280;2080;51.038;7.008;2023-10-09T04:22:48;2299.88;;;-142.53;100.00
4133;BME280;2080;51.038;7.008;2023-10-09T04:25:26;2299.88;;;-142.53;100.00
4133;BME280;2080;51.038;7.008;2023-10-09T04:27:59;2056.69;;;-142.53;100.00
4133;BME280;2080;51.038;7.008;2023-10-09T04:30:40;1327.25;;;-142.53;100.00
4133;BME280;2080;51.038;7.008;2023-10-09T04:33:11;1327.25;;;-142.53;100.00
4133;BME280;2080;51.038;7.008;2023-10-09T04:36:00;1084.16;;;-142.53;100.00
4133;BME280;2080;51.038;7.008;2023-10-09T04:38:44;2299.88;;;-142.53;100.00
4133;BME280;2080;51.038;7.008;2023-10-09T04:41:23;2056.69;;;-142.53;100.00
4133;BME280;2080;51.038;7.008;2023-10-09T04:43:58;2786.31;;;-142.53;100.00
4133;BME280;2080;51.038;7.008;2023-10-09T04:46:41;3272.78;;;-142.53;100.00
4133;BME280;2080;51.038;7.008;2023-10-09T04:49:10;2786.31;;;-142.53;100.00
4133;BME280;2080;51.038;7.008;2023-10-09T04:51:54;2299.88;;;-142.53;100.00
4133;BME280;2080;51.038;7.008;2023-10-09T04:54:43;2299.88;;;-142.53;100.00
4133;BME280;2080;51.038;7.008;2023-10-09T04:57:43;3029.53;;;-142.53;100.00
4133;BME280;2080;51.038;7.008;2023-10-09T05:03:03;3516.06;;;-142.53;100.00
4133;BME280;2080;51.038;7.008;2023-10-09T05:05:49;3516.06;;;-142.53;100.00
4133;BME280;2080;51.038;7.008;2023-10-09T05:13:24;1813.53;;;-142.53;100.00
4133;BME280;2080;51.038;7.008;2023-10-09T05:16:18;1813.53;;;-142.53;100.00
4133;BME280;2080;51.038;7.008;2023-10-09T05:18:45;2299.88;;;-142.53;100.00
4133;BME280;2080;51.038;7.008;2023-10-09T05:21:31;1570.41;;;-142.53;100.00
4133;BME280;2080;51.038;7.008;2023-10-09T05:27:38;2786.31;;;-142.53;100.00
4133;BME280;2080;51.038;7.008;2023-10-09T05:30:16;1570.41;;;-142.53;100.00
4133;BME280;2080;51.038;7.008;2023-10-09T05:32:52;2056.69;;;-142.53;100.00
4133;BME280;2080;51.038;7.008;2023-10-09T05:35:21;2786.31;;;-142.53;100.00
4133;BME280;2080;51.038;7.008;2023-10-09T05:37:55;1813.53;;;-142.53;100.00
4133;BME280;2080;51.038;7.008;2023-10-09T05:40:41;841.06;;;-142.53;100.00
4133;BME280;2080;51.038;7.008;2023-10-09T05:43:09;841.06;;;-142.53;100.00
4133;BME280;2080;51.038;7.008;2023-10-09T05:45:55;841.06;;;-142.53;100.00
4133;BME280;2080;51.038;7.008;2023-10-09T05:48:36;111.88;;;-142.53;100.00
4133;BME280;2080;51.038;7.008;2023-10-09T05:51:04;1570.41;;;-142.53;100.00
4133;BME280;2080;51.038;7.008;2023-10-09T05:53:39;1084.16;;;-142.53;100.00
4133;BME280;2080;51.038;7.008;2023-10-09T05:56:14;-131.13;;;-142.53;100.00
4133;BME280;2080;51.038;7.008;2023-10-09T05:59:05;-374.13;;;-142.53;100.00
4133;BME280;2080;51.038;7.008;2023-10-09T06:01:49;-2560.34;;;-142.53;100.00
4133;BME280;2080;51.038;7.008;2023-10-09T06:04:23;-1103.03;;;-142.53;100.00
4133;BME280;2080;51.038;7.008;2023-10-09T06:07:09;-131.13;;;-142.53;100.00
4133;BME280;2080;51.038;7.008;2023-10-09T06:09:39;354.94;;;-142.53;100.00
4133;BME280;2080;51.038;7.008;2023-10-09T06:12:20;598.00;;;-142.53;100.00
4133;BME280;2080;51.038;7.008;2023-10-09T06:15:02;598.00;;;-142.53;100.00
4133;BME280;2080;51.038;7.008;2023-10-09T06:17:52;1570.41;;;-142.53;100.00
4133;BME280;2080;51.038;7.008;2023-10-09T06:20:25;1813.53;;;-142.53;100.00
4133;BME280;2080;51.038;7.008;2023-10-09T06:23:25;1813.53;;;-142.53;100.00
4133;BME280;2080;51.038;7.008;2023-10-09T06:26:11;1327.25;;;-142.53;100.00
4133;BME280;2080;51.038;7.008;2023-10-09T06:28:50;1813.53;;;-142.53;100.00
4133;BME280;2080;51.038;7.008;2023-10-09T06:31:35;2056.69;;;-142.53;100.00
4133;BME280;2080;51.038;7.008;2023-10-09T06:34:21;2786.31;;;-142.53;100.00
4133;BME280;2080;51.038;7.008;2023-10-09T06:37:00;3759.34;;;-142.53;100.00
4133;BME280;2080;51.038;7.008;2023-10-09T06:39:42;3029.53;;;-142.53;100.00
4133;BME280;2080;51.038;7.008;2023-10-09T06:42:23;4732.69;;;-142.53;100.00
4133;BME280;2080;51.038;7.008;2023-10-09T06:45:06;5462.91;;;-142.53;100.00
4133;BME280;2080;51.038;7.008;2023-10-09T06:47:36;5706.34;;;-142.53;100.00
4133;BME280;2080;51.038;7.008;2023-10-09T06:50:22;5949.78;;;-142.53;100.00
4133;BME280;2080;51.038;7.008;2023-10-09T06:52:48;6923.78;;;-142.53;100.00
4133;BME280;2080;51.038;7.008;2023-10-09T06:55:45;8628.94;;;-142.53;100.00
4133;BME280;2080;51.038;7.008;2023-10-09T06:58:24;10822.63;;;-142.53;100.00
4133;BME280;2080;51.038;7.008;2023-10-09T07:01:07;9603.72;;;-142.53;100.00
4133;BME280;2080;51.038;7.008;2023-10-09T07:03:57;8872.63;;;-142.53;100.00
4133;BME280;2080;51.038;7.008;2023-10-09T07:06:38;11066.44;;;-142.53;100.00
4133;BME280;2080;51.038;7.008;2023-10-09T07:09:08;12529.81;;;-142.53;100.00
4133;BME280;2080;51.038;7.008;2023-10-09T07:11:48;12285.88;;;-142.53;100.00
4133;BME280;2080;51.038;7.008;2023-10-09T07:14:20;13749.78;;;-142.53;100.00
4133;BME280;2080;51.038;7.008;2023-10-09T07:17:08;14237.88;;;-142.53;100.00
4133;BME280;2080;51.038;7.008;2023-10-09T07:19:46;13993.81;;;-142.53;100.00
4133;BME280;2080;51.038;7.008;2023-10-09T07:22:14;15702.66;;;-142.53;100.00
4133;BME280;2080;51.038;7.008;2023-10-09T07:24:46;15458.50;;;-142.53;100.00
4133;BME280;2080;51.038;7.008;2023-10-09T07:27:23;13993.81;;;-142.53;100.00
4133;BME280;2080;51.038;7.008;2023-10-09T07:30:27;12773.78;;;-142.53;100.00
4133;BME280;2080;51.038;7.008;2023-10-09T07:33:04;13749.78;;;-142.53;100.00
4133;BME280;2080;51.038;7.008;2023-10-09T07:35:40;14726.06;;;-142.53;100.00
4133;BME280;2080;51.038;7.008;2023-10-09T07:38:23;17412.38;;;-142.53;100.00
4133;BME280;2080;51.038;7.008;2023-10-09T07:40:56;21568.22;;;-142.53;100.00
4133;BME280;2080;51.038;7.008;2023-10-09T07:43:45;22791.50;;;-142.53;100.00
4133;BME280;2080;51.038;7.008;2023-10-09T07:48:56;30922.56;;;-142.53;100.00
4133;BME280;2080;51.038;7.008;2023-10-09T07:51:22;33668.00;;;-142.53;100.00
4133;BME280;2080;51.038;7.008;2023-10-09T07:53:52;34040.13;;;-142.53;100.00
4133;BME280;2080;51.038;7.008;2023-10-09T07:56:45;35108.75;;;-142.53;100.00
4133;BME280;2080;51.038;7.008;2023-10-09T07:59:12;34868.91;;;-142.53;100.00
4133;BME280;2080;51.038;7.008;2023-10-09T08:07:15;38885.19;;;-142.53;97.52
4133;BME280;2080;51.038;7.008;2023-10-09T08:10:03;40030.28;;;-142.53;96.75
4133;BME280;2080;51.038;7.008;2023-10-09T08:23:41;42950.53;;;-142.53;92.11
4133;BME280;2080;51.038;7.008;2023-10-09T08:26:19;43010.16;;;-142.53;93.41
4133;BME280;2080;51.038;7.008;2023-10-09T08:34:28;43533.34;;;-142.53;93.34
4133;BME280;2080;51.038;7.008;2023-10-09T08:36:53;43623.75;;;-142.53;92.38
4133;BME280;2080;51.038;7.008;2023-10-09T08:39:20;43783.44;;;-142.53;91.94
4133;BME280;2080;51.038;7.008;2023-10-09T08:41:55;44164.34;;;-142.53;90.37
4133;BME280;2080;51.038;7.008;2023-10-09T08:44:25;44056.63;;;-142.53;90.97
4133;BME280;2080;51.038;7.008;2023-10-09T08:49:05;44614.59;;;-142.53;88.42
4133;BME280;2080;51.038;7.008;2023-10-09T08:51:33;45222.72;;;-142.53;84.87
4133;BME280;2080;51.038;7.008;2023-10-09T08:54:03;45149.59;;;-142.53;86.83
4133;BME280;2080;51.038;7.008;2023-10-09T08:56:32;45257.38;;;-142.53;86.27
4133;BME280;2080;51.038;7.008;2023-10-09T08:59:00;45592.28;;;-142.53;82.85
4133;BME280;2080;51.038;7.008;2023-10-09T09:01:29;45634.63;;;-142.53;83.84
4133;BME280;2080;51.038;7.008;2023-10-09T09:03:57;45676.97;;;-142.53;83.42
4133;BME280;2080;51.038;7.008;2023-10-09T09:06:23;45703.91;;;-142.53;82.25
4133;BME280;2080;51.038;7.008;2023-10-09T09:08:52;45838.66;;;-142.53;81.82
4133;BME280;2080;51.038;7.008;2023-10-09T09:11:25;45950.31;;;-142.53;79.19
4133;BME280;2080;51.038;7.008;2023-10-09T09:14:02;46008.06;;;-142.53;79.95
4133;BME280;2080;51.038;7.008;2023-10-09T09:16:43;46008.06;;;-142.53;80.92
4133;BME280;2080;51.038;7.008;2023-10-09T09:19:13;45996.50;;;-142.53;80.70
4133;BME280;2080;51.038;7.008;2023-10-09T09:21:49;46061.97;;;-142.53;79.89
4133;BME280;2080;51.038;7.008;2023-10-09T09:24:20;46142.81;;;-142.53;76.93
4133;BME280;2080;51.038;7.008;2023-10-09T09:26:49;46150.53;;;-142.53;75.84
4133;BME280;2080;51.038;7.008;2023-10-09T09:39:43;46250.63;;;-142.53;75.42
4133;BME280;2080;51.038;7.008;2023-10-09T09:42:08;46258.31;;;-142.53;75.58
4133;BME280;2080;51.038;7.008;2023-10-09T09:49:09;46273.72;;;-142.53;74.25
4133;BME280;2080;51.038;7.008;2023-10-09T09:51:46;46277.59;;;-142.53;73.35
4133;BME280;2080;51.038;7.008;2023-10-09T09:54:15;46325.72;;;-142.53;70.76
4133;BME280;2080;51.038;7.008;2023-10-09T09:56:44;46339.19;;;-142.53;66.97
4133;BME280;2080;51.038;7.008;2023-10-09T09:59:17;46373.84;;;-142.53;66.15
4133;BME280;2080;51.038;7.008;2023-10-09T10:01:49;46346.88;;;-142.53;62.91
4133;BME280;2080;51.038;7.008;2023-10-09T10:04:24;46339.19;;;-142.53;65.38
4133;BME280;2080;51.038;7.008;2023-10-09T10:06:52;46343.03;;;-142.53;63.23
4133;BME280;2080;51.038;7.008;2023-10-09T10:09:41;46316.09;;;-142.53;63.21
4133;BME280;2080;51.038;7.008;2023-10-09T10:12:10;46316.09;;;-142.53;65.63
4133;BME280;2080;51.038;7.008;2023-10-09T10:14:58;46354.59;;;-142.53;62.98
4133;BME280;2080;51.038;7.008;2023-10-09T10:17:25;46354.59;;;-142.53;63.60
4133;BME280;2080;51.038;7.008;2023-10-09T10:22:29;46300.69;;;-142.53;62.97
4133;BME280;2080;51.038;7.008;2023-10-09T10:24:56;46331.50;;;-142.53;62.65
4133;BME280;2080;51.038;7.008;2023-10-09T10:27:27;46473.97;;;-142.53;62.20
4133;BME280;2080;51.038;7.008;2023-10-09T10:30:26;46339.19;;;-142.53;63.41
4133;BME280;2080;51.038;7.008;2023-10-09T10:33:00;46343.03;;;-142.53;62.15
4133;BME280;2080;51.038;7.008;2023-10-09T10:35:38;46370.00;;;-142.53;58.35
4133;BME280;2080;51.038;7.008;2023-10-09T10:38:29;46335.34;;;-142.53;57.53
4133;BME280;2080;51.038;7.008;2023-10-09T10:43:37;46339.19;;;-142.53;57.47
4133;BME280;2080;51.038;7.008;2023-10-09T10:46:15;46331.50;;;-142.53;56.04
4133;BME280;2080;51.038;7.008;2023-10-09T10:48:55;46316.09;;;-142.53;57.95
4133;BME280;2080;51.038;7.008;2023-10-09T10:51:28;46335.34;;;-142.53;57.07
4133;BME280;2080;51.038;7.008;2023-10-09T10:54:07;46343.03;;;-142.53;56.37
4133;BME280;2080;51.038;7.008;2023-10-09T10:56:53;46296.84;;;-142.53;55.62
4133;BME280;2080;51.038;7.008;2023-10-09T10:59:24;46366.13;;;-142.53;55.13
4133;BME280;2080;51.038;7.008;2023-10-09T11:01:52;46327.63;;;-142.53;54.93
4133;BME280;2080;51.038;7.008;2023-10-09T11:11:38;46335.34;;;-142.53;52.75
4133;BME280;2080;51.038;7.008;2023-10-09T11:14:13;46327.63;;;-142.53;54.47
4133;BME280;2080;51.038;7.008;2023-10-09T11:16:51;46354.59;;;-142.53;56.12
4133;BME280;2080;51.038;7.008;2023-10-09T11:19:23;46327.63;;;-142.53;55.25
4133;BME280;2080;51.038;7.008;2023-10-09T11:21:55;46304.53;;;-142.53;53.27
4133;BME280;2080;51.038;7.008;2023-10-09T11:24:42;46289.13;;;-142.53;52.32
4133;BME280;2080;51.038;7.008;2023-10-09T11:34:33;46312.22;;;-142.53;53.65
4133;BME280;2080;51.038;7.008;2023-10-09T11:37:12;46296.84;;;-142.53;55.09
4133;BME280;2080;51.038;7.008;2023-10-09T11:56:33;46292.97;;;-142.53;54.21
4133;BME280;2080;51.038;7.008;2023-10-09T11:58:59;46321.88;;;-142.53;55.41
4133;BME280;2080;51.038;7.008;2023-10-09T12:01:29;46292.97;;;-142.53;56.12
4133;BME280;2080;51.038;7.008;2023-10-09T12:04:00;46835.94;;;-142.53;56.33
4133;BME280;2080;51.038;7.008;2023-10-09T12:06:25;46192.88;;;-142.53;59.38
4133;BME280;2080;51.038;7.008;2023-10-09T12:08:57;46310.31;;;-142.53;57.17
4133;BME280;2080;51.038;7.008;2023-10-09T12:11:28;46296.84;;;-142.53;59.46
4133;BME280;2080;51.038;7.008;2023-10-09T12:13:56;46387.31;;;-142.53;56.35
4133;BME280;2080;51.038;7.008;2023-10-09T12:16:23;46308.38;;;-142.53;56.62
4133;BME280;2080;51.038;7.008;2023-10-09T12:18:53;46292.97;;;-142.53;58.18
4133;BME280;2080;51.038;7.008;2023-10-09T12:21:20;46343.03;;;-142.53;57.56
4133;BME280;2080;51.038;7.008;2023-10-09T12:23:48;46204.41;;;-142.53;57.12
4133;BME280;2080;51.038;7.008;2023-10-09T12:26:13;46316.09;;;-142.53;55.83
4133;BME280;2080;51.038;7.008;2023-10-09T12:28:42;46318.00;;;-142.53;56.30
4133;BME280;2080;51.038;7.008;2023-10-09T12:31:14;46308.38;;;-142.53;57.97
4133;BME280;2080;51.038;7.008;2023-10-09T12:33:41;46323.78;;;-142.53;56.88
4133;BME280;2080;51.038;7.008;2023-10-09T12:36:13;46335.34;;;-142.53;57.58
4133;BME280;2080;51.038;7.008;2023-10-09T12:38:51;46308.38;;;-142.53;56.44
4133;BME280;2080;51.038;7.008;2023-10-09T12:41:24;46310.31;;;-142.53;58.08
4133;BME280;2080;51.038;7.008;2023-10-09T12:43:53;46327.63;;;-142.53;59.21
4133;BME280;2080;51.038;7.008;2023-10-09T12:46:19;46269.88;;;-142.53;58.89
4133;BME280;2080;51.038;7.008;2023-10-09T12:48:48;46302.59;;;-142.53;59.97
4133;BME280;2080;51.038;7.008;2023-10-09T12:51:18;46306.47;;;-142.53;60.24
4133;BME280;2080;51.038;7.008;2023-10-09T12:53:47;46285.28;;;-142.53;63.39
4133;BME280;2080;51.038;7.008;2023-10-09T12:56:22;46308.38;;;-142.53;60.92
4133;BME280;2080;51.038;7.008;2023-10-09T12:58:48;46292.97;;;-142.53;60.09
4133;BME280;2080;51.038;7.008;2023-10-09T13:01:22;46316.09;;;-142.53;59.78
4133;BME280;2080;51.038;7.008;2023-10-09T13:03:47;46316.09;;;-142.53;60.25
4133;BME280;2080;51.038;7.008;2023-10-09T13:06:15;46306.47;;;-142.53;59.69
4133;BME280;2080;51.038;7.008;2023-10-09T13:08:49;46331.50;;;-142.53;60.37
4133;BME280;2080;51.038;7.008;2023-10-09T13:11:14;46314.16;;;-142.53;59.61
4133;BME280;2080;51.038;7.008;2023-10-09T13:13:46;46316.09;;;-142.53;59.08
4133;BME280;2080;51.038;7.008;2023-10-09T13:16:20;46319.94;;;-142.53;60.70
4133;BME280;2080;51.038;7.008;2023-10-09T13:18:49;46344.97;;;-142.53;60.12
4133;BME280;2080;51.038;7.008;2023-10-09T13:23:42;46323.78;;;-142.53;63.43
4133;BME280;2080;51.038;7.008;2023-10-09T13:26:21;46296.84;;;-142.53;64.74
4133;BME280;2080;51.038;7.008;2023-10-09T13:28:54;46300.69;;;-142.53;62.39
4133;BME280;2080;51.038;7.008;2023-10-09T13:31:22;46335.34;;;-142.53;62.49
4133;BME280;2080;51.038;7.008;2023-10-09T13:33:51;46323.78;;;-142.53;62.20
4133;BME280;2080;51.038;7.008;2023-10-09T13:48:31;46312.22;;;-142.53;68.01
4133;BME280;2080;51.038;7.008;2023-10-09T13:51:03;46312.22;;;-142.53;68.55
4133;BME280;2080;51.038;7.008;2023-10-09T13:53:32;46300.69;;;-142.53;68.83
4133;BME280;2080;51.038;7.008;2023-10-09T13:56:02;46266.03;;;-142.53;67.98
4133;BME280;2080;51.038;7.008;2023-10-09T13:58:31;46321.88;;;-142.53;68.65
4133;BME280;2080;51.038;7.008;2023-10-09T14:00:56;46300.69;;;-142.53;68.31
4133;BME280;2080;51.038;7.008;2023-10-09T14:03:22;46870.59;;;-142.53;68.02
4133;BME280;2080;51.038;7.008;2023-10-09T14:05:48;46312.22;;;-142.53;67.02
4133;BME280;2080;51.038;7.008;2023-10-09T14:08:22;46312.22;;;-142.53;66.75
4133;BME280;2080;51.038;7.008;2023-10-09T14:10:53;46281.44;;;-142.53;66.15
4133;BME280;2080;51.038;7.008;2023-10-09T14:13:22;46308.38;;;-142.53;68.28
4133;BME280;2080;51.038;7.008;2023-10-09T14:15:53;46304.53;;;-142.53;69.37
4133;BME280;2080;51.038;7.008;2023-10-09T14:18:21;46304.53;;;-142.53;70.16
4133;BME280;2080;51.038;7.008;2023-10-09T14:20:52;46331.50;;;-142.53;69.70
4133;BME280;2080;51.038;7.008;2023-10-09T14:23:21;46306.47;;;-142.53;68.80
4133;BME280;2080;51.038;7.008;2023-10-09T14:25:47;46319.94;;;-142.53;69.95
4133;BME280;2080;51.038;7.008;2023-10-09T14:28:15;46316.09;;;-142.53;68.75
4133;BME280;2080;51.038;7.008;2023-10-09T14:30:45;46331.50;;;-142.53;70.23
4133;BME280;2080;51.038;7.008;2023-10-09T14:33:14;46335.34;;;-142.53;68.99
4133;BME280;2080;51.038;7.008;2023-10-09T14:35:40;46310.31;;;-142.53;68.89
4133;BME280;2080;51.038;7.008;2023-10-09T14:38:09;46331.50;;;-142.53;66.77
4133;BME280;2080;51.038;7.008;2023-10-09T14:40:46;46200.56;;;-142.53;68.19
4133;BME280;2080;51.038;7.008;2023-10-09T14:43:15;46254.47;;;-142.53;66.92
4133;BME280;2080;51.038;7.008;2023-10-09T14:45:49;46350.75;;;-142.53;67.14
4133;BME280;2080;51.038;7.008;2023-10-09T14:48:15;46316.09;;;-142.53;69.54
4133;BME280;2080;51.038;7.008;2023-10-09T14:50:47;46308.38;;;-142.53;70.15
4133;BME280;2080;51.038;7.008;2023-10-09T14:53:13;46335.34;;;-142.53;68.77
4133;BME280;2080;51.038;7.008;2023-10-09T14:55:46;46312.22;;;-142.53;68.32
4133;BME280;2080;51.038;7.008;2023-10-09T14:58:13;46312.22;;;-142.53;68.80
4133;BME280;2080;51.038;7.008;2023-10-09T15:00:39;46281.44;;;-142.53;69.70
4133;BME280;2080;51.038;7.008;2023-10-09T15:03:14;46266.03;;;-142.53;68.59
4133;BME280;2080;51.038;7.008;2023-10-09T15:05:48;46312.22;;;-142.53;71.50
4133;BME280;2080;51.038;7.008;2023-10-09T15:08:13;46316.09;;;-142.53;69.36
4133;BME280;2080;51.038;7.008;2023-10-09T15:10:49;46323.78;;;-142.53;67.38
4133;BME280;2080;51.038;7.008;2023-10-09T15:13:17;46350.75;;;-142.53;67.08
4133;BME280;2080;51.038;7.008;2023-10-09T15:15:45;46352.66;;;-142.53;67.62
4133;BME280;2080;51.038;7.008;2023-10-09T15:18:11;46316.09;;;-142.53;65.89
4133;BME280;2080;51.038;7.008;2023-10-09T15:20:43;46273.72;;;-142.53;64.86
4133;BME280;2080;51.038;7.008;2023-10-09T15:23:10;46189.03;;;-142.53;65.68
4133;BME280;2080;51.038;7.008;2023-10-09T15:25:36;46346.88;;;-142.53;66.76
4133;BME280;2080;51.038;7.008;2023-10-09T15:28:10;46339.19;;;-142.53;66.37
4133;BME280;2080;51.038;7.008;2023-10-09T15:30:40;46327.63;;;-142.53;66.66
4133;BME280;2080;51.038;7.008;2023-10-09T15:33:07;46346.88;;;-142.53;67.97
4133;BME280;2080;51.038;7.008;2023-10-09T15:35:34;46323.78;;;-142.53;69.09
4133;BME280;2080;51.038;7.008;2023-10-09T15:38:03;46327.63;;;-142.53;69.04
4133;BME280;2080;51.038;7.008;2023-10-09T15:40:34;46325.72;;;-142.53;68.17
4133;BME280;2080;51.038;7.008;2023-10-09T15:43:00;46341.13;;;-142.53;67.93
4133;BME280;2080;51.038;7.008;2023-10-09T15:45:26;46312.22;;;-142.53;67.46
4133;BME280;2080;51.038;7.008;2023-10-09T15:47:54;46319.94;;;-142.53;66.88
4133;BME280;2080;51.038;7.008;2023-10-09T15:50:20;46296.84;;;-142.53;67.27
4133;BME280;2080;51.038;7.008;2023-10-09T15:55:35;46308.38;;;-142.53;68.56
4133;BME280;2080;51.038;7.008;2023-10-09T15:58:02;46316.09;;;-142.53;69.32
4133;BME280;2080;51.038;7.008;2023-10-09T16:00:28;46314.16;;;-142.53;68.72
4133;BME280;2080;51.038;7.008;2023-10-09T16:04:37;46316.09;;;-142.53;69.83
4133;BME280;2080;51.038;7.008;2023-10-09T16:07:03;46308.38;;;-142.53;70.22
4133;BME280;2080;51.038;7.008;2023-10-09T16:09:33;46292.97;;;-142.53;72.96
4133;BME280;2080;51.038;7.008;2023-10-09T16:12:05;46312.22;;;-142.53;74.50